sim
Sign-in with your pilot id or email,
or register
Callsign
Passwort

Schedule Details

Flight Number: RYR3806 (3)
Departure: Fuerteventura Airport (GCFV) at 14:10
Arrival: Manchester Airport (EGCC) at 18:35
Route: Ryanair Passenger Schedule. Enter filed route here before submitting Pirep.

Weather Information
Getting current METAR information for GCFV 160230Z AUTO 28005KT 9999 NCD 13/10 Q1018
Getting current METAR information for EGCC 160220Z AUTO 19006KT 140V230 9999 OVC024 09/05 Q1018 TEMPO BKN013

Schedule Frequency

Route Map